Time;durP1;ratioP1;P1;durP2;ratioP2;P2;SDS_P1;SDS_P2;PMS_P1;PMS_P2;Temp;Humidity;BMP_temperature;BMP_pressure;BME280_temperature;BME280_humidity;BME280_pressure;Samples;Min_cycle;Max_cycle;Signal;HPM_P1;HPM_P2
2021/12/24 00:01:16;;;;;;;20.85;12.30;;;19.10;60.50;;;;;;10606503;27;20035;-59
2021/12/24 00:06:21;;;;;;;21.50;12.30;;;19.10;60.40;;;;;;10622845;27;20043;-59
2021/12/24 00:11:26;;;;;;;22.88;11.77;;;19.00;60.40;;;;;;10625246;27;20047;-59
2021/12/24 00:16:49;;;;;;;26.52;12.48;;;19.00;60.50;;;;;;10607432;27;20064;-59
2021/12/24 00:38:08;;;;;;;22.83;13.02;;;18.90;60.80;;;;;;10625822;27;20068;-59
2021/12/24 00:43:15;;;;;;;31.10;15.15;;;18.90;60.80;;;;;;10623727;27;20068;-58
2021/12/24 00:48:21;;;;;;;35.50;18.05;;;18.80;60.60;;;;;;10625450;27;20043;-59
2021/12/24 00:58:37;;;;;;;40.75;20.23;;;18.80;60.60;;;;;;10624160;27;20054;-59
2021/12/24 01:03:42;;;;;;;43.25;20.40;;;18.80;60.60;;;;;;10625000;27;20092;-59
2021/12/24 01:08:48;;;;;;;37.88;19.30;;;18.80;60.60;;;;;;10606676;27;20544;-59
2021/12/24 01:13:54;;;;;;;38.50;19.83;;;18.80;60.60;;;;;;10623858;27;20054;-60
2021/12/24 01:19:09;;;;;;;35.00;18.73;;;18.90;60.70;;;;;;10575194;28;20508;-60
2021/12/24 01:24:21;;;;;;;36.65;18.75;;;18.80;60.60;;;;;;10547208;28;20093;-59
2021/12/24 01:45:34;;;;;;;33.33;17.08;;;18.80;60.60;;;;;;10558053;28;20044;-59
2021/12/24 01:50:48;;;;;;;33.25;15.70;;;18.80;60.60;;;;;;10551909;28;20089;-58
2021/12/24 01:55:58;;;;;;;30.17;14.75;;;18.80;60.60;;;;;;10569308;28;20051;-59
2021/12/24 02:01:03;;;;;;;30.63;14.00;;;18.70;60.60;;;;;;10589405;28;20061;-59
2021/12/24 02:06:09;;;;;;;35.83;12.70;;;18.70;60.60;;;;;;10570889;28;20108;-59
2021/12/24 02:11:15;;;;;;;21.05;10.95;;;18.60;60.50;;;;;;10588485;28;20492;-59
2021/12/24 02:16:47;;;;;;;21.42;11.18;;;18.60;60.50;;;;;;10578096;27;20055;-59
2021/12/24 02:32:42;;;;;;;18.02;10.30;;;18.50;60.50;;;;;;10612537;27;20055;-59
2021/12/24 02:37:48;;;;;;;25.92;11.27;;;18.50;60.50;;;;;;10612137;27;20043;-60
2021/12/24 02:42:55;;;;;;;16.55;9.95;;;18.40;60.70;;;;;;10629339;27;20077;-59
2021/12/24 02:58:43;;;;;;;17.73;9.93;;;18.40;60.80;;;;;;10630306;27;20039;-59
2021/12/24 03:03:51;;;;;;;20.40;9.93;;;18.30;60.80;;;;;;10629093;27;20043;-59
2021/12/24 03:08:56;;;;;;;15.35;9.52;;;18.30;60.90;;;;;;10628807;27;20102;-59
2021/12/24 03:14:04;;;;;;;17.90;9.60;;;18.30;60.80;;;;;;10610499;27;20047;-59
2021/12/24 03:19:11;;;;;;;16.00;9.53;;;18.20;60.90;;;;;;10628220;27;20050;-59
2021/12/24 03:29:23;;;;;;;18.98;10.27;;;18.20;60.90;;;;;;10609988;27;20070;-58
2021/12/24 03:34:29;;;;;;;18.30;9.98;;;18.20;60.90;;;;;;10628347;27;20091;-58
2021/12/24 03:39:35;;;;;;;16.50;9.77;;;18.20;60.90;;;;;;10610100;27;20092;-59
2021/12/24 03:44:50;;;;;;;19.08;10.15;;;18.10;60.90;;;;;;10609742;27;20043;-59
2021/12/24 03:50:02;;;;;;;17.02;9.57;;;18.10;60.80;;;;;;10627271;27;20456;-59
2021/12/24 03:55:08;;;;;;;15.93;9.23;;;18.10;60.90;;;;;;10608365;27;20047;-59
2021/12/24 04:00:23;;;;;;;15.55;9.27;;;18.10;60.90;;;;;;10608752;27;20062;-59
2021/12/24 04:05:51;;;;;;;14.73;8.98;;;18.10;60.90;;;;;;10597894;27;20063;-60
2021/12/24 04:11:15;;;;;;;17.08;9.75;;;18.00;60.80;;;;;;10594266;27;20453;-59
2021/12/24 04:16:21;;;;;;;18.08;9.65;;;18.00;60.60;;;;;;10607914;27;20058;-60
2021/12/24 04:27:00;;;;;;;18.35;9.02;;;18.20;60.30;;;;;;10608128;27;20104;-59
2021/12/24 04:32:10;;;;;;;15.02;8.45;;;18.40;59.80;;;;;;10607381;27;20449;-60
2021/12/24 05:04:29;;;;;;;14.73;7.63;;;19.30;58.90;;;;;;10606401;27;20092;-59
2021/12/24 05:09:39;;;;;;;13.15;7.53;;;19.40;58.80;;;;;;10606598;27;20066;-59
2021/12/24 05:14:44;;;;;;;;;;;19.50;58.70;;;;;;10625110;27;20047;-59
2021/12/24 05:25:53;;;;;;;10.75;7.38;;;19.70;58.40;;;;;;10563235;28;20385;-59
2021/12/24 05:30:59;;;;;;;13.65;7.68;;;19.70;58.30;;;;;;10581312;28;20101;-59
2021/12/24 05:36:04;;;;;;;13.43;7.57;;;19.80;58.40;;;;;;10563330;28;20047;-59
2021/12/24 05:41:11;;;;;;;12.77;7.35;;;19.90;58.30;;;;;;10546417;28;20052;-59
2021/12/24 05:46:17;;;;;;;10.05;6.90;;;19.90;58.10;;;;;;10562815;28;20048;-59
2021/12/24 05:51:29;;;;;;;12.52;7.07;;;19.90;58.10;;;;;;10562961;28;20056;-59
2021/12/24 05:57:07;;;;;;;9.65;6.88;;;20.00;58.10;;;;;;10562673;28;20056;-59
2021/12/24 06:02:12;;;;;;;14.80;7.85;;;20.10;58.00;;;;;;10563064;28;20116;-59
2021/12/24 06:07:17;;;;;;;10.85;7.05;;;20.20;57.90;;;;;;10562605;28;20048;-59
2021/12/24 06:12:22;;;;;;;14.80;7.03;;;20.20;58.40;;;;;;10581021;28;20047;-59
2021/12/24 06:17:27;;;;;;;12.52;7.35;;;20.30;57.70;;;;;;10597971;27;20491;-59
2021/12/24 06:22:32;;;;;;;11.57;6.80;;;20.30;57.50;;;;;;10631236;27;20039;-59
2021/12/24 06:27:38;;;;;;;11.07;6.78;;;20.40;57.50;;;;;;10630189;27;20487;-59
2021/12/24 06:32:43;;;;;;;12.32;6.88;;;20.40;57.60;;;;;;10630159;27;20073;-59
2021/12/24 06:37:48;;;;;;;14.20;7.35;;;20.50;57.60;;;;;;10630670;27;20046;-59
2021/12/24 06:42:53;;;;;;;11.90;6.88;;;20.50;57.50;;;;;;10629937;27;20043;-59
2021/12/24 06:47:59;;;;;;;9.48;6.40;;;20.60;57.30;;;;;;10630417;27;20491;-59
2021/12/24 06:53:04;;;;;;;12.75;6.57;;;20.60;57.30;;;;;;10629363;27;20413;-59
2021/12/24 06:58:09;;;;;;;13.68;6.75;;;20.50;57.40;;;;;;10631636;27;20429;-59
2021/12/24 07:03:15;;;;;;;10.82;6.85;;;20.50;57.50;;;;;;10611029;27;20039;-59
2021/12/24 07:08:20;;;;;;;10.57;7.38;;;20.40;57.50;;;;;;10629542;27;20047;-59
2021/12/24 07:13:25;;;;;;;15.20;8.35;;;20.40;57.70;;;;;;10629295;27;20096;-59
2021/12/24 07:18:30;;;;;;;13.63;8.70;;;20.30;57.80;;;;;;10628540;27;20047;-59
2021/12/24 07:23:35;;;;;;;14.68;9.32;;;20.30;58.00;;;;;;10628213;27;20043;-59
2021/12/24 07:28:40;;;;;;;15.18;9.98;;;20.20;58.00;;;;;;10628266;27;20073;-59
2021/12/24 07:33:45;;;;;;;16.27;10.65;;;20.10;58.10;;;;;;10627288;27;20051;-59
2021/12/24 07:38:50;;;;;;;11.75;8.88;;;20.00;58.20;;;;;;10628641;27;20068;-59
2021/12/24 07:43:56;;;;;;;16.58;10.63;;;20.00;58.30;;;;;;10627398;27;20044;-59
2021/12/24 07:49:12;;;;;;;31.27;11.98;;;19.90;58.30;;;;;;10627221;27;20047;-59
2021/12/24 07:54:17;;;;;;;21.73;13.25;;;19.90;58.50;;;;;;10627033;27;20461;-58
2021/12/24 07:59:22;;;;;;;27.83;13.65;;;19.80;58.50;;;;;;10627314;27;20066;-58
2021/12/24 08:04:27;;;;;;;26.17;14.77;;;19.80;58.60;;;;;;10627062;27;20039;-58
2021/12/24 08:09:32;;;;;;;22.10;14.85;;;19.70;58.60;;;;;;10626564;27;20055;-59
2021/12/24 08:14:37;;;;;;;24.25;14.20;;;19.60;58.60;;;;;;10626224;27;20051;-59
2021/12/24 08:19:43;;;;;;;22.35;13.80;;;19.60;58.60;;;;;;10625561;27;20131;-59
2021/12/24 08:24:48;;;;;;;21.70;12.35;;;19.50;58.60;;;;;;10626515;27;20085;-59
2021/12/24 08:29:53;;;;;;;19.00;10.68;;;19.50;58.80;;;;;;10625618;27;20073;-59
2021/12/24 08:34:59;;;;;;;14.18;8.90;;;19.40;58.80;;;;;;10625556;27;20051;-59
2021/12/24 08:40:05;;;;;;;12.77;8.02;;;19.40;58.90;;;;;;10607638;27;20430;-59
2021/12/24 08:45:10;;;;;;;10.40;6.80;;;19.30;58.90;;;;;;10606967;27;20095;-59
2021/12/24 08:50:15;;;;;;;10.65;6.38;;;19.30;59.00;;;;;;10625396;27;20092;-59
2021/12/24 08:55:20;;;;;;;8.15;5.50;;;19.20;58.90;;;;;;10624638;27;20088;-59
2021/12/24 09:00:25;;;;;;;7.13;4.78;;;19.20;59.00;;;;;;10624409;27;20047;-59
2021/12/24 09:05:31;;;;;;;6.55;4.70;;;19.20;59.10;;;;;;10624380;27;20103;-60
2021/12/24 09:10:36;;;;;;;5.75;4.28;;;19.10;59.10;;;;;;10624362;27;20099;-59
2021/12/24 09:15:42;;;;;;;12.13;6.55;;;19.10;59.20;;;;;;10623693;27;20058;-59
2021/12/24 09:20:47;;;;;;;16.38;11.30;;;19.10;59.30;;;;;;10606787;27;20406;-62
2021/12/24 09:25:52;;;;;;;14.23;10.85;;;19.00;59.20;;;;;;10623719;27;20069;-59
2021/12/24 09:30:57;;;;;;;19.83;11.23;;;19.00;59.30;;;;;;10623554;28;20054;-59
2021/12/24 09:36:02;;;;;;;558.53;128.55;;;19.00;59.20;;;;;;10603986;28;20035;-60
2021/12/24 09:41:08;;;;;;;389.35;68.25;;;18.90;59.30;;;;;;10623830;28;20047;-57
2021/12/24 09:46:14;;;;;;;235.05;41.47;;;18.90;60.30;;;;;;10622900;28;20100;-59
2021/12/24 09:51:26;;;;;;;139.85;23.70;;;18.90;59.80;;;;;;10621805;28;20054;-59
2021/12/24 09:56:32;;;;;;;91.13;17.65;;;19.00;60.20;;;;;;10630625;27;20043;-58
2021/12/24 10:05:47;;;;;;;36.83;9.73;;;19.30;59.50;;;;;;10444399;28;20128;-58
2021/12/24 10:11:08;;;;;;;25.98;7.30;;;19.30;60.40;;;;;;10445468;28;20114;-58
2021/12/24 10:16:20;;;;;;;20.73;6.10;;;19.30;60.50;;;;;;10444464;28;20059;-58
2021/12/24 10:21:28;;;;;;;11.13;3.90;;;19.20;60.50;;;;;;10444160;28;20049;-58
2021/12/24 10:26:44;;;;;;;7.70;3.17;;;19.20;60.50;;;;;;10443647;28;20090;-59
2021/12/24 10:31:53;;;;;;;7.90;2.70;;;19.20;60.50;;;;;;10441907;28;20041;-58
2021/12/24 10:37:06;;;;;;;6.68;2.65;;;19.10;60.50;;;;;;10443131;28;20045;-58
2021/12/24 10:42:32;;;;;;;9.70;3.05;;;18.90;60.70;;;;;;10441363;28;20094;-59
2021/12/24 10:47:40;;;;;;;10.30;4.13;;;18.90;61.00;;;;;;10455117;28;20042;-59
2021/12/24 10:53:32;;;;;;;6.30;3.72;;;18.80;61.10;;;;;;10440113;28;20045;-59
2021/12/24 10:58:31;;;;;;;7.63;3.55;;;18.90;60.70;;;;;;10441778;28;20042;-58
2021/12/24 11:03:43;;;;;;;5.30;2.90;;;18.90;60.70;;;;;;10438145;28;20046;-59
2021/12/24 11:08:55;;;;;;;7.93;3.53;;;18.90;60.60;;;;;;10440690;28;20053;-58
2021/12/24 11:14:01;;;;;;;10.80;5.43;;;18.90;60.40;;;;;;10424210;28;20106;-59
2021/12/24 11:19:06;;;;;;;12.55;6.57;;;18.80;60.80;;;;;;10414945;28;20049;-59
2021/12/24 11:24:11;;;;;;;11.88;7.82;;;18.70;61.20;;;;;;10396205;28;20110;-59
2021/12/24 11:29:16;;;;;;;14.15;8.07;;;18.70;61.10;;;;;;10413535;28;20057;-60
2021/12/24 11:34:21;;;;;;;13.73;7.82;;;18.70;60.80;;;;;;10413837;28;20049;-59
2021/12/24 11:39:26;;;;;;;11.48;7.55;;;18.80;60.60;;;;;;10414296;28;20106;-59
2021/12/24 11:44:32;;;;;;;13.88;7.38;;;18.90;60.40;;;;;;10413967;28;20042;-60
2021/12/24 11:49:36;;;;;;;13.40;8.18;;;19.20;60.00;;;;;;10412939;28;20053;-59
2021/12/24 11:54:41;;;;;;;14.75;7.18;;;19.40;59.70;;;;;;10412746;28;20137;-59
2021/12/24 11:59:47;;;;;;;11.15;7.57;;;19.50;59.50;;;;;;10411770;28;20083;-59
2021/12/24 12:05:34;;;;;;;11.90;7.82;;;19.60;59.30;;;;;;10412810;28;20129;-59
2021/12/24 12:11:00;;;;;;;12.68;6.97;;;19.70;59.10;;;;;;10497224;28;20405;-59
2021/12/24 12:16:10;;;;;;;26.80;8.32;;;19.80;59.10;;;;;;10496850;28;20055;-60
2021/12/24 12:21:35;;;;;;;12.27;7.53;;;19.90;59.00;;;;;;10477431;28;20056;-60
2021/12/24 12:26:48;;;;;;;27.95;8.88;;;20.00;58.90;;;;;;10494262;28;20057;-53
2021/12/24 12:32:16;;;;;;;21.02;9.45;;;20.00;59.40;;;;;;10496656;28;20134;-59
2021/12/24 12:37:23;;;;;;;29.83;8.63;;;19.90;59.60;;;;;;10487056;28;20452;-58
2021/12/24 12:43:06;;;;;;;30.43;8.43;;;19.90;59.70;;;;;;10338052;28;20091;-58
2021/12/24 12:48:23;;;;;;;22.00;8.95;;;20.00;59.30;;;;;;10454541;28;20049;-58
2021/12/24 12:53:33;;;;;;;14.13;7.63;;;20.10;58.90;;;;;;10454083;28;20049;-58
2021/12/24 12:58:42;;;;;;;16.02;10.07;;;20.20;58.30;;;;;;10454338;28;20080;-59
2021/12/24 13:03:55;;;;;;;21.00;11.33;;;20.40;58.20;;;;;;10452878;28;20049;-58
2021/12/24 13:09:06;;;;;;;20.60;12.60;;;20.40;58.00;;;;;;10453303;28;20498;-58
2021/12/24 13:14:13;;;;;;;20.63;11.80;;;20.40;57.70;;;;;;10453040;28;20453;-58
2021/12/24 13:19:27;;;;;;;20.80;13.30;;;20.50;57.60;;;;;;10436818;28;20455;-52
2021/12/24 13:24:31;;;;;;;21.00;13.50;;;20.50;57.60;;;;;;10369105;28;20380;-58
2021/12/24 13:29:36;;;;;;;18.98;13.20;;;20.40;57.60;;;;;;10369250;28;20054;-58
2021/12/24 13:34:41;;;;;;;19.63;12.65;;;20.40;57.60;;;;;;10368890;28;20073;-58
2021/12/24 13:39:52;;;;;;;20.17;12.60;;;20.30;57.70;;;;;;10369363;28;20054;-58
2021/12/24 13:45:03;;;;;;;21.80;12.98;;;20.30;57.60;;;;;;10368969;28;20535;-58
2021/12/24 13:55:25;;;;;;;18.05;12.13;;;20.20;57.80;;;;;;10368401;28;20053;-58
2021/12/24 14:00:32;;;;;;;16.20;10.67;;;20.10;57.70;;;;;;10368307;28;20050;-58
2021/12/24 14:05:46;;;;;;;18.35;11.73;;;20.10;57.80;;;;;;10368052;28;20486;-58
2021/12/24 14:11:10;;;;;;;17.38;10.82;;;20.00;57.80;;;;;;10368264;28;20042;-58
2021/12/24 14:26:46;;;;;;;14.07;9.97;;;19.80;58.40;;;;;;10367533;28;20406;-58
2021/12/24 14:31:59;;;;;;;16.23;9.18;;;19.80;58.50;;;;;;10367733;28;20038;-58
2021/12/24 14:37:08;;;;;;;17.55;10.30;;;19.70;58.50;;;;;;10367703;28;20099;-58
2021/12/24 14:42:39;;;;;;;15.77;9.93;;;19.70;58.70;;;;;;10367810;28;20042;-58
2021/12/24 14:48:03;;;;;;;15.60;9.13;;;19.60;58.70;;;;;;10367928;28;20050;-58
2021/12/24 14:53:28;;;;;;;14.15;8.93;;;19.50;58.70;;;;;;10374239;28;20099;-58
2021/12/24 14:58:42;;;;;;;13.80;8.98;;;19.50;58.80;;;;;;10373841;28;20054;-58
2021/12/24 15:03:57;;;;;;;16.90;9.00;;;19.40;58.80;;;;;;10373215;28;20516;-58
2021/12/24 15:09:11;;;;;;;13.80;9.20;;;19.40;58.80;;;;;;10373831;28;20046;-58
2021/12/24 15:14:18;;;;;;;12.60;7.97;;;19.30;58.80;;;;;;10373603;28;20079;-58
2021/12/24 15:19:23;;;;;;;13.63;8.82;;;19.30;58.70;;;;;;10372434;28;20053;-58
2021/12/24 15:24:28;;;;;;;14.52;8.95;;;19.20;58.70;;;;;;10372883;28;20054;-58
2021/12/24 15:29:33;;;;;;;14.38;9.27;;;19.20;58.70;;;;;;10373348;28;20571;-58
2021/12/24 15:34:38;;;;;;;14.00;9.30;;;19.10;58.60;;;;;;10372607;28;20103;-58
2021/12/24 15:39:43;;;;;;;13.38;9.70;;;19.10;58.60;;;;;;10373431;28;20098;-58
2021/12/24 15:44:48;;;;;;;13.88;8.85;;;19.00;58.60;;;;;;10372278;28;20050;-58
2021/12/24 15:49:53;;;;;;;14.23;8.35;;;19.00;58.60;;;;;;10382113;28;20106;-59
2021/12/24 15:54:58;;;;;;;13.15;8.88;;;19.00;58.40;;;;;;10374446;28;20050;-58
2021/12/24 16:00:04;;;;;;;12.05;8.10;;;19.00;58.30;;;;;;10372480;28;20092;-58
2021/12/24 16:05:10;;;;;;;13.60;7.93;;;19.10;58.20;;;;;;10371433;28;20060;-58
2021/12/24 16:10:15;;;;;;;11.48;7.15;;;19.30;57.40;;;;;;10372809;28;20102;-58
2021/12/24 16:15:20;;;;;;;12.38;7.40;;;19.50;56.90;;;;;;10371823;28;20050;-58
2021/12/24 16:20:25;;;;;;;11.43;7.45;;;19.70;56.80;;;;;;10371683;28;20079;-58
2021/12/24 16:25:30;;;;;;;9.45;6.75;;;19.80;56.50;;;;;;10371355;28;20042;-58
2021/12/24 16:30:38;;;;;;;9.95;7.43;;;19.80;56.50;;;;;;10371682;28;20057;-58
2021/12/24 16:35:43;;;;;;;11.75;7.15;;;19.90;56.30;;;;;;10371390;28;20046;-58
2021/12/24 16:40:51;;;;;;;10.75;7.82;;;20.10;56.10;;;;;;10370429;28;20058;-58
2021/12/24 16:45:56;;;;;;;11.18;7.03;;;20.10;56.10;;;;;;10399201;28;20045;-58
2021/12/24 16:51:02;;;;;;;11.20;7.30;;;20.20;55.90;;;;;;10411114;28;20056;-58
2021/12/24 16:56:07;;;;;;;11.10;7.53;;;20.30;55.80;;;;;;10410478;28;20046;-58
2021/12/24 17:01:12;;;;;;;14.63;7.82;;;20.30;55.60;;;;;;10409224;28;20053;-58
2021/12/24 17:06:17;;;;;;;14.80;8.10;;;20.40;55.60;;;;;;10410523;28;20050;-58
2021/12/24 17:11:25;;;;;;;20.73;8.65;;;20.40;55.70;;;;;;10410060;28;20071;-59
2021/12/24 17:16:30;;;;;;;26.33;8.57;;;20.40;56.80;;;;;;10410268;28;20121;-59
2021/12/24 17:21:35;;;;;;;12.13;7.60;;;20.50;57.20;;;;;;10411085;28;20049;-58
2021/12/24 17:26:40;;;;;;;15.82;8.40;;;20.60;57.80;;;;;;10410506;28;20049;-59
2021/12/24 17:31:45;;;;;;;13.25;7.55;;;20.70;58.50;;;;;;10410753;28;20049;-59
2021/12/24 17:36:51;;;;;;;16.10;8.13;;;20.70;58.90;;;;;;10409973;28;20497;-59
2021/12/24 17:41:56;;;;;;;14.23;7.05;;;20.80;59.30;;;;;;10409407;28;20050;-59
2021/12/24 17:47:04;;;;;;;12.88;7.32;;;20.80;59.60;;;;;;10409325;28;20057;-59
2021/12/24 17:52:10;;;;;;;9.65;6.35;;;20.80;60.10;;;;;;10409372;28;20485;-59
2021/12/24 17:57:15;;;;;;;12.10;7.03;;;20.90;60.30;;;;;;10408965;28;20099;-59
2021/12/24 18:02:20;;;;;;;21.63;10.23;;;20.90;60.50;;;;;;10408991;28;20110;-59
2021/12/24 18:07:25;;;;;;;34.95;14.60;;;20.90;61.20;;;;;;10409558;28;20052;-59
2021/12/24 18:12:31;;;;;;;32.90;14.50;;;21.00;61.30;;;;;;10407469;28;20053;-59
2021/12/24 18:17:39;;;;;;;23.45;10.40;;;21.00;61.10;;;;;;10408537;28;20057;-59
2021/12/24 18:22:44;;;;;;;16.27;7.93;;;20.80;61.90;;;;;;10408927;28;20050;-59
2021/12/24 18:27:50;;;;;;;18.75;7.10;;;20.70;62.50;;;;;;10446822;28;20057;-59
2021/12/24 18:32:54;;;;;;;16.63;6.95;;;20.70;62.80;;;;;;10415256;28;20451;-59
2021/12/24 18:43:09;;;;;;;15.60;6.85;;;21.00;62.00;;;;;;10416436;28;20048;-59
2021/12/24 18:48:16;;;;;;;12.93;5.57;;;21.00;62.00;;;;;;10414907;28;20056;-59
2021/12/24 18:53:23;;;;;;;11.63;5.68;;;21.00;62.20;;;;;;10416554;28;20432;-59
2021/12/24 18:58:28;;;;;;;11.60;5.80;;;20.90;62.50;;;;;;10414556;28;20054;-59
2021/12/24 19:03:33;;;;;;;9.88;5.43;;;20.80;62.60;;;;;;10414466;28;20054;-59
2021/12/24 19:08:39;;;;;;;11.65;5.45;;;20.70;62.70;;;;;;10414586;28;20114;-59
2021/12/24 19:13:44;;;;;;;12.35;5.15;;;20.60;62.90;;;;;;10414957;28;20106;-59
2021/12/24 19:18:49;;;;;;;11.45;5.82;;;20.60;63.10;;;;;;10413917;28;20075;-59
2021/12/24 19:23:54;;;;;;;10.77;5.10;;;20.50;63.20;;;;;;10413737;28;20042;-59
2021/12/24 19:29:02;;;;;;;10.88;5.55;;;20.30;63.30;;;;;;10413676;28;20099;-59
2021/12/24 19:34:07;;;;;;;10.70;5.13;;;20.30;63.50;;;;;;10413195;28;20421;-59
2021/12/24 19:39:12;;;;;;;9.10;4.65;;;20.20;63.60;;;;;;10413341;28;20049;-59
2021/12/24 19:44:17;;;;;;;8.80;4.60;;;20.20;63.60;;;;;;10413095;28;20071;-59
2021/12/24 19:49:21;;;;;;;8.98;4.53;;;20.10;63.70;;;;;;10413074;28;20074;-59
2021/12/24 19:54:26;;;;;;;10.13;5.10;;;20.10;63.70;;;;;;10412891;28;20106;-59
2021/12/24 19:59:31;;;;;;;8.48;4.78;;;20.00;63.70;;;;;;10412814;28;20057;-59
2021/12/24 20:04:36;;;;;;;7.70;4.32;;;19.90;63.70;;;;;;10412509;28;20098;-59
2021/12/24 20:09:41;;;;;;;9.60;4.82;;;19.90;63.80;;;;;;10412474;28;20058;-59
2021/12/24 20:14:46;;;;;;;8.18;4.45;;;19.80;63.70;;;;;;10412520;28;20095;-59
2021/12/24 20:19:51;;;;;;;6.22;4.05;;;19.70;63.70;;;;;;10412070;28;20058;-59
2021/12/24 20:24:56;;;;;;;8.48;5.07;;;19.70;63.70;;;;;;10412723;28;20435;-59
2021/12/24 20:30:02;;;;;;;10.32;6.05;;;19.70;63.70;;;;;;10412015;28;20046;-59
2021/12/24 20:35:08;;;;;;;11.68;7.35;;;19.60;63.70;;;;;;10411470;28;20441;-59
2021/12/24 20:40:15;;;;;;;13.27;7.13;;;19.60;63.60;;;;;;10411839;28;20048;-59
2021/12/24 20:45:22;;;;;;;10.37;7.13;;;19.60;64.00;;;;;;10410561;28;20067;-59
2021/12/24 20:50:36;;;;;;;8.27;5.25;;;19.70;63.20;;;;;;10409454;28;20049;-60
2021/12/24 20:55:44;;;;;;;9.30;5.45;;;19.80;63.10;;;;;;10410953;28;20496;-59
2021/12/24 21:00:48;;;;;;;8.65;5.10;;;20.00;62.20;;;;;;10410905;28;20434;-58
2021/12/24 21:05:54;;;;;;;7.88;5.05;;;20.20;61.70;;;;;;10410428;28;20050;-59
2021/12/24 21:10:59;;;;;;;7.25;4.88;;;20.30;61.30;;;;;;10410845;28;20056;-59
2021/12/24 21:16:04;;;;;;;7.00;4.45;;;20.30;61.30;;;;;;10411048;28;20054;-59
2021/12/24 21:21:09;;;;;;;6.57;3.95;;;20.30;61.10;;;;;;10410010;28;20057;-60
2021/12/24 21:26:14;;;;;;;6.13;4.05;;;20.30;61.00;;;;;;10410132;28;20045;-59
2021/12/24 21:31:20;;;;;;;7.43;3.95;;;20.30;61.10;;;;;;10409787;28;20054;-59
2021/12/24 21:36:27;;;;;;;5.38;3.85;;;20.30;61.00;;;;;;10409597;28;20455;-59
2021/12/24 21:41:32;;;;;;;4.22;3.22;;;20.20;60.90;;;;;;10409593;28;20045;-59
2021/12/24 21:46:38;;;;;;;6.28;3.80;;;20.20;61.30;;;;;;10410121;28;20050;-59
2021/12/24 21:51:43;;;;;;;5.53;3.40;;;20.00;61.30;;;;;;10409865;28;20054;-59
2021/12/24 21:56:47;;;;;;;5.68;3.30;;;20.00;61.40;;;;;;10407557;28;20057;-59
2021/12/24 22:01:54;;;;;;;4.65;3.15;;;19.90;61.40;;;;;;10409188;28;20489;-59
2021/12/24 22:12:23;;;;;;;4.45;2.95;;;19.80;61.20;;;;;;10408486;28;20054;-59
2021/12/24 22:17:28;;;;;;;5.15;3.00;;;19.80;61.20;;;;;;10409012;28;20045;-60
2021/12/24 22:22:33;;;;;;;4.25;2.80;;;19.70;61.10;;;;;;10408962;28;20505;-59
2021/12/24 22:27:39;;;;;;;5.25;3.10;;;19.70;61.10;;;;;;10408094;28;20057;-59
2021/12/24 22:32:50;;;;;;;3.50;2.63;;;19.70;61.10;;;;;;10408296;28;20054;-59
2021/12/24 22:37:57;;;;;;;4.45;3.15;;;19.60;61.00;;;;;;10408419;28;20110;-59
2021/12/24 22:43:03;;;;;;;6.35;3.60;;;19.50;60.90;;;;;;10407961;28;20098;-60
2021/12/24 22:48:09;;;;;;;8.27;4.82;;;19.50;60.90;;;;;;10407619;28;20110;-59
2021/12/24 22:53:16;;;;;;;9.48;4.60;;;19.50;60.80;;;;;;10407609;28;20414;-59
2021/12/24 22:58:21;;;;;;;7.30;4.40;;;19.40;60.70;;;;;;10407976;28;20045;-59
2021/12/24 23:03:32;;;;;;;6.60;3.90;;;19.40;60.70;;;;;;10407454;28;20498;-59
2021/12/24 23:08:42;;;;;;;6.40;3.90;;;19.30;60.60;;;;;;10407515;28;20079;-59
2021/12/24 23:13:47;;;;;;;6.95;3.90;;;19.30;60.50;;;;;;10413520;28;20041;-59
2021/12/24 23:19:10;;;;;;;5.70;3.55;;;19.30;60.50;;;;;;10380673;28;20058;-59
2021/12/24 23:24:17;;;;;;;6.10;3.22;;;19.20;60.40;;;;;;10412769;28;20049;-59
2021/12/24 23:29:21;;;;;;;7.35;4.07;;;19.20;60.40;;;;;;10414175;28;20145;-59
2021/12/24 23:34:26;;;;;;;6.95;4.03;;;19.10;60.20;;;;;;10413345;28;20054;-59
2021/12/24 23:39:32;;;;;;;7.45;3.50;;;19.10;60.20;;;;;;10413774;28;20042;-59
2021/12/24 23:44:45;;;;;;;6.35;3.60;;;19.00;60.10;;;;;;10414146;28;20041;-59
2021/12/24 23:49:50;;;;;;;8.80;3.70;;;19.00;60.10;;;;;;10413455;28;20378;-59
2021/12/24 23:54:55;;;;;;;6.57;3.70;;;19.00;60.10;;;;;;10412777;28;20046;-59
